createdAt,value
2018-05-15T00:00:34.734Z,23.6
2018-05-15T00:01:23.564Z,23.6
2018-05-15T00:02:14.199Z,23.6
2018-05-15T00:03:02.922Z,23.6
2018-05-15T00:03:54.587Z,23.5
2018-05-15T00:04:44.469Z,23.5
2018-05-15T00:05:34.271Z,23.4
2018-05-15T00:06:24.229Z,23.4
2018-05-15T00:07:15.194Z,23.4
2018-05-15T00:08:04.119Z,23.4
2018-05-15T00:08:54.811Z,23.4
2018-05-15T00:09:43.569Z,23.4
2018-05-15T00:10:35.351Z,23.4
2018-05-15T00:11:24.026Z,23.4
2018-05-15T00:12:14.926Z,23.3
2018-05-15T00:13:04.458Z,23.3
2018-05-15T00:13:54.621Z,23.3
2018-05-15T00:14:44.281Z,23.3
2018-05-15T00:15:34.104Z,23.3
2018-05-15T00:16:25.233Z,23.3
2018-05-15T00:17:15.321Z,23.3
2018-05-15T00:18:04.829Z,23.2
2018-05-15T00:18:55.733Z,23.2
2018-05-15T00:19:45.575Z,23.2
2018-05-15T00:20:34.721Z,23.1
2018-05-15T00:21:25.331Z,23.1
2018-05-15T00:22:15.648Z,23.1
2018-05-15T00:23:05.771Z,23.1
2018-05-15T00:23:55.538Z,23.1
2018-05-15T00:24:46.136Z,23.1
2018-05-15T00:25:36.152Z,23.1
2018-05-15T00:26:25.709Z,23
2018-05-15T06:34:09.718Z,20.2
2018-05-15T11:21:28.379Z,19.9
2018-05-15T11:22:17.996Z,19.9
2018-05-15T11:23:07.810Z,20
2018-05-15T11:23:58.460Z,20
2018-05-15T11:24:48.531Z,20
2018-05-15T11:25:38.677Z,19.9
2018-05-15T11:26:27.803Z,20
2018-05-15T11:27:18.351Z,19.9
2018-05-15T11:28:08.716Z,19.9
2018-05-15T11:28:59.075Z,19.9
2018-05-15T11:29:48.651Z,19.9
2018-05-15T11:30:39.973Z,19.9
2018-05-15T11:31:28.142Z,19.9
2018-05-15T11:32:19.395Z,20
2018-05-15T11:33:08.652Z,19.9
2018-05-15T11:33:59.005Z,19.9
2018-05-15T11:34:49.012Z,19.9
2018-05-15T11:35:40.708Z,19.9
2018-05-15T11:36:28.814Z,19.9
2018-05-15T11:37:19.243Z,19.9
2018-05-15T11:38:08.979Z,19.9
2018-05-15T11:38:58.549Z,20
2018-05-15T11:39:48.847Z,19.9
2018-05-15T11:40:39.182Z,19.9
2018-05-15T11:41:30.704Z,19.9
2018-05-15T11:42:19.519Z,19.9
2018-05-15T11:43:09.154Z,19.9
2018-05-15T11:43:58.944Z,19.9
2018-05-15T11:44:50.022Z,20
2018-05-15T11:45:39.536Z,19.9
2018-05-15T11:46:29.937Z,20
2018-05-15T11:47:21.338Z,20
2018-05-15T11:48:20.438Z,19.9
2018-05-15T11:49:18.981Z,19.9
2018-05-15T11:50:09.035Z,19.9
2018-05-15T11:51:00.524Z,19.9
2018-05-15T11:51:45.091Z,19.9
2018-05-15T11:52:36.596Z,19.9
2018-05-15T11:53:23.585Z,19.9
2018-05-15T11:54:02.206Z,19.9
2018-05-15T11:54:50.510Z,19.9
2018-05-15T11:55:51.934Z,19.9
2018-05-15T11:56:31.628Z,20
2018-05-15T11:57:20.734Z,19.9
2018-05-15T11:58:11.976Z,20
2018-05-15T11:59:00.450Z,19.9
2018-05-15T11:59:52.491Z,20
2018-05-15T12:00:40.924Z,19.9
2018-05-15T12:01:31.573Z,20
2018-05-15T12:02:21.345Z,20
2018-05-15T12:03:10.882Z,20
2018-05-15T12:04:03.409Z,19.9
2018-05-15T12:04:51.520Z,20
2018-05-15T12:05:40.764Z,19.9
2018-05-15T12:06:32.788Z,20
2018-05-15T12:07:21.980Z,19.9
2018-05-15T12:08:13.555Z,20
2018-05-15T12:09:02.380Z,19.9
2018-05-15T12:09:51.924Z,20
2018-05-15T12:10:43.387Z,20
2018-05-15T12:11:32.029Z,20
2018-05-15T12:12:21.839Z,20
2018-05-15T12:13:12.199Z,20
2018-05-15T12:14:02.035Z,20
2018-05-15T12:14:50.580Z,20
2018-05-15T12:15:41.500Z,19.9
2018-05-15T12:16:31.589Z,20
2018-05-15T12:17:21.989Z,20
2018-05-15T12:18:12.887Z,20
2018-05-15T12:19:02.122Z,20
2018-05-15T12:19:52.957Z,20
2018-05-15T12:20:42.532Z,20
2018-05-15T12:21:31.947Z,20
2018-05-15T12:22:22.449Z,20
2018-05-15T12:23:11.833Z,20
2018-05-15T12:24:03.280Z,20
2018-05-15T12:24:53.151Z,20
2018-05-15T12:25:43.334Z,20
2018-05-15T12:26:33.191Z,20
2018-05-15T12:27:23.237Z,20
2018-05-15T12:28:14.426Z,20
2018-05-15T12:29:03.755Z,20
2018-05-15T12:29:53.874Z,20
2018-05-15T12:30:43.284Z,20
2018-05-15T12:31:33.882Z,20
2018-05-15T12:32:23.358Z,20
2018-05-15T12:33:12.958Z,20
2018-05-15T12:34:03.813Z,20
2018-05-15T12:34:54.166Z,20
2018-05-15T12:35:43.772Z,20
2018-05-15T12:36:33.741Z,20
2018-05-15T12:37:23.258Z,20
2018-05-15T12:38:14.347Z,20
2018-05-15T12:39:03.943Z,20
2018-05-15T12:39:54.209Z,20
2018-05-15T12:40:44.578Z,20
2018-05-15T12:41:36.611Z,20
2018-05-15T12:42:24.385Z,20
2018-05-15T12:43:14.314Z,20
2018-05-15T12:44:04.563Z,20
2018-05-15T12:44:54.073Z,20
2018-05-15T12:45:44.370Z,20
2018-05-15T12:46:34.783Z,20
2018-05-15T12:47:24.914Z,20
2018-05-15T12:48:16.141Z,20
2018-05-15T12:49:05.311Z,20
2018-05-15T12:49:54.762Z,20
2018-05-15T12:50:44.767Z,20
2018-05-15T12:51:34.263Z,20
2018-05-15T12:52:24.081Z,20
2018-05-15T12:53:14.996Z,20
2018-05-15T12:54:06.780Z,20
2018-05-15T12:54:55.474Z,20
2018-05-15T12:55:45.400Z,20
2018-05-15T12:56:35.271Z,20
2018-05-15T12:57:25.591Z,20
2018-05-15T12:58:15.391Z,20
2018-05-15T12:59:04.571Z,20
2018-05-15T12:59:56.071Z,20
2018-05-15T13:00:45.859Z,20
2018-05-15T13:01:36.221Z,20
2018-05-15T13:02:25.393Z,20
2018-05-15T13:03:14.611Z,20
2018-05-15T13:04:05.516Z,20
2018-05-15T13:04:55.912Z,20
2018-05-15T13:05:45.187Z,20
2018-05-15T13:06:36.333Z,20
2018-05-15T13:07:26.765Z,20
2018-05-15T13:08:15.867Z,20
2018-05-15T15:02:31.624Z,20.1
2018-05-15T15:03:21.117Z,20.1
2018-05-15T15:04:11.541Z,20.1
2018-05-15T15:05:01.341Z,20.1
2018-05-15T15:05:51.337Z,20.1
2018-05-15T15:06:41.065Z,20.1
2018-05-15T15:07:31.718Z,20.1
2018-05-15T15:08:21.880Z,20.1
2018-05-15T15:09:11.559Z,20.1
2018-05-15T15:10:02.589Z,20.1
2018-05-15T15:10:52.277Z,20.1
2018-05-15T15:11:42.141Z,20.1
2018-05-15T15:12:32.431Z,20.1
2018-05-15T15:13:22.184Z,20.1
2018-05-15T15:14:12.001Z,20.1
2018-05-15T15:15:02.629Z,20.1
2018-05-15T15:15:51.507Z,20.1
2018-05-15T15:16:42.445Z,20.1
2018-05-15T15:17:32.628Z,20.1
2018-05-15T15:18:22.302Z,20.1
2018-05-15T15:19:13.487Z,20.1
2018-05-15T15:20:02.973Z,20.1
2018-05-15T15:20:52.490Z,20.1
2018-05-15T15:21:43.177Z,20.1
2018-05-15T15:22:32.928Z,20.1
2018-05-15T15:23:23.167Z,20.1
2018-05-15T15:24:13.369Z,20.1
2018-05-15T15:25:03.294Z,20.1
2018-05-15T15:25:52.850Z,20.1
2018-05-15T15:26:42.712Z,20.1
2018-05-15T15:27:33.508Z,20.1
2018-05-15T15:28:23.923Z,20.1
2018-05-15T15:29:13.908Z,20.1
2018-05-15T15:30:03.904Z,20.1
2018-05-15T15:30:53.247Z,20.1
2018-05-15T15:31:43.553Z,20.1
2018-05-15T15:32:33.954Z,20.1
2018-05-15T15:33:23.144Z,20.1
2018-05-15T15:34:13.010Z,20.1
2018-05-15T15:35:03.923Z,20.1
2018-05-15T15:35:53.237Z,20.1
2018-05-15T15:36:43.710Z,20.1
2018-05-15T15:37:33.462Z,20.1
2018-05-15T15:38:23.574Z,20.1
2018-05-15T15:39:14.724Z,20.1
2018-05-15T15:40:03.984Z,20.1
2018-05-15T15:40:53.735Z,20.1
2018-05-15T15:41:43.839Z,20.1
2018-05-15T15:42:35.219Z,20.1
2018-05-15T15:43:23.931Z,20.1
2018-05-15T15:44:14.860Z,20.1
2018-05-15T15:45:04.745Z,20.1
2018-05-15T15:45:54.443Z,20.1
2018-05-15T15:46:44.207Z,20.1
2018-05-15T15:47:34.575Z,20.1
2018-05-15T15:48:24.319Z,20.1
2018-05-15T15:49:15.479Z,20.1
2018-05-15T15:50:04.156Z,20.1
2018-05-15T15:50:54.884Z,20.1
2018-05-15T15:51:44.827Z,20.1
2018-05-15T15:52:34.888Z,20.1
2018-05-15T15:53:25.519Z,20.1
2018-05-15T15:54:15.355Z,20.1
2018-05-15T15:55:05.935Z,20.1
2018-05-15T15:55:55.984Z,20.1
2018-05-15T15:56:45.541Z,20.1
2018-05-15T15:57:35.184Z,20.1
2018-05-15T15:58:26.392Z,20.1
2018-05-15T15:59:16.209Z,20.1
2018-05-15T16:00:06.295Z,20.1
2018-05-15T16:00:56.560Z,20.1
2018-05-15T16:01:47.038Z,20.1
2018-05-15T16:02:36.178Z,20.1
2018-05-15T16:03:25.984Z,20.1
2018-05-15T16:04:17.651Z,20.1
2018-05-15T16:05:05.616Z,20.1
2018-05-15T16:05:56.499Z,20.1
2018-05-15T16:06:47.665Z,20.1
2018-05-15T16:07:36.249Z,20.1
2018-05-15T16:08:27.430Z,20.1
2018-05-15T16:09:17.305Z,20.1
2018-05-15T16:10:10.478Z,20.1
2018-05-15T16:10:57.034Z,20.1
2018-05-15T16:11:47.108Z,20.1
2018-05-15T16:12:37.236Z,20.1
2018-05-15T16:13:28.140Z,20.1
2018-05-15T16:14:17.019Z,20.1
2018-05-15T16:15:07.679Z,20.1
2018-05-15T16:15:58.008Z,20.1
2018-05-15T16:16:46.790Z,20.1
2018-05-15T16:17:38.100Z,20.1
2018-05-15T16:18:27.652Z,20.1
2018-05-15T16:19:17.726Z,20.1
2018-05-15T16:20:07.815Z,20.1
2018-05-15T16:20:58.137Z,20.1
2018-05-15T16:21:47.963Z,20.1
2018-05-15T16:22:38.237Z,20.1
2018-05-15T16:23:27.543Z,20.1
2018-05-15T16:24:17.777Z,20.1
2018-05-15T16:25:08.221Z,20.1
2018-05-15T16:25:57.362Z,20.1
2018-05-15T16:26:48.865Z,20.1
2018-05-15T16:27:38.086Z,20.1
2018-05-15T16:28:28.702Z,20.1
2018-05-15T16:29:18.571Z,20.1
2018-05-15T16:30:08.806Z,20.1
2018-05-15T16:30:58.616Z,20.1
2018-05-15T16:31:48.670Z,20.1
2018-05-15T16:32:39.309Z,20.1
2018-05-15T16:33:28.809Z,20.1
2018-05-15T16:34:18.585Z,20.1
2018-05-15T16:35:08.472Z,20.1
2018-05-15T16:35:58.234Z,20.1
2018-05-15T16:36:48.100Z,20.1
2018-05-15T16:37:38.010Z,20.1
2018-05-15T16:38:29.342Z,20.1
2018-05-15T16:39:17.995Z,20.1
2018-05-15T16:40:08.379Z,20.1
2018-05-15T16:40:59.424Z,20.1
2018-05-15T16:41:49.225Z,20.1
2018-05-15T16:42:39.296Z,20.1
2018-05-15T16:43:30.159Z,20.1
2018-05-15T16:44:19.522Z,20.1
2018-05-15T16:45:09.892Z,20.1
2018-05-15T16:45:59.299Z,20.1
2018-05-15T16:46:49.668Z,20.1
2018-05-15T16:47:40.343Z,20.1
2018-05-15T16:48:29.463Z,20.1
2018-05-15T16:49:19.916Z,20.1
2018-05-15T16:50:08.798Z,20.1
2018-05-15T16:50:58.558Z,20.1
2018-05-15T16:51:49.991Z,20.1
2018-05-15T16:52:40.345Z,20.1
2018-05-15T16:53:31.109Z,20.1
2018-05-15T16:54:20.470Z,20.1
2018-05-15T16:55:10.059Z,20.1
2018-05-15T16:55:59.780Z,20.1
2018-05-15T16:56:50.110Z,20.1
2018-05-15T16:57:39.636Z,20.1
2018-05-15T16:58:29.739Z,20.1
2018-05-15T16:59:19.226Z,20.1
2018-05-15T17:00:09.843Z,20.1
2018-05-15T17:01:00.518Z,20.1
2018-05-15T17:01:50.908Z,20.1
2018-05-15T17:02:40.028Z,20.1
2018-05-15T17:03:30.641Z,20.1
2018-05-15T17:04:20.446Z,20.1
2018-05-15T17:05:09.713Z,20
2018-05-15T17:06:00.933Z,20.1
2018-05-15T17:06:50.180Z,20.1
2018-05-15T17:07:40.677Z,20.1
2018-05-15T17:08:31.050Z,20.1
2018-05-15T17:09:21.655Z,20.1
2018-05-15T17:10:11.467Z,20.1
2018-05-15T17:11:00.399Z,20.1
2018-05-15T17:11:51.862Z,20.1
2018-05-15T17:12:41.093Z,20.1
2018-05-15T17:13:32.527Z,20.1
2018-05-15T17:14:20.990Z,20.1
2018-05-15T17:15:11.589Z,20.1
2018-05-15T17:16:01.619Z,20.1
2018-05-15T17:16:51.942Z,20.1
2018-05-15T17:17:42.350Z,20.1
2018-05-15T17:18:31.196Z,20.1
2018-05-15T17:19:21.854Z,20.1
2018-05-15T17:20:11.918Z,20.1
2018-05-15T17:21:01.789Z,20.1
2018-05-15T17:21:52.613Z,20.1
2018-05-15T17:22:41.307Z,20.1
2018-05-15T17:23:31.422Z,20.1
2018-05-15T17:24:21.274Z,20.1
2018-05-15T17:25:12.418Z,20.1
2018-05-15T17:26:01.632Z,20.1
2018-05-15T17:26:52.077Z,20.1
2018-05-15T17:27:42.288Z,20.1
2018-05-15T17:28:32.088Z,20.1
2018-05-15T17:29:21.274Z,20.1
2018-05-15T17:30:12.314Z,20
2018-05-15T17:31:02.599Z,20.1
2018-05-15T17:31:53.389Z,20.1
2018-05-15T17:32:42.508Z,20.1
2018-05-15T17:33:33.018Z,20.1
2018-05-15T17:34:21.936Z,20.1
2018-05-15T17:35:12.881Z,20.1
2018-05-15T17:36:02.406Z,20.1
2018-05-15T17:36:53.525Z,20
2018-05-15T17:37:43.271Z,20
2018-05-15T17:38:32.753Z,20.1
2018-05-15T17:39:23.361Z,20.1
2018-05-15T17:40:13.259Z,20.1
2018-05-15T17:41:04.979Z,20.1
2018-05-15T17:41:52.707Z,20.1
2018-05-15T17:42:43.650Z,20.1
2018-05-15T17:43:33.986Z,20
2018-05-15T17:44:24.303Z,20.1
2018-05-15T17:45:14.233Z,20.1
2018-05-15T17:46:04.162Z,20.1
2018-05-15T17:46:54.506Z,20
2018-05-15T17:47:44.252Z,20.1
2018-05-15T17:48:34.071Z,20
2018-05-15T17:49:23.302Z,20
2018-05-15T17:50:13.717Z,20.1
2018-05-15T17:51:03.502Z,20.1
2018-05-15T17:51:54.221Z,20
2018-05-15T17:52:44.058Z,20
2018-05-15T17:53:34.732Z,20.1
2018-05-15T17:54:24.532Z,20
2018-05-15T17:55:14.027Z,20
2018-05-15T17:56:04.120Z,20
2018-05-15T17:56:53.891Z,20
2018-05-15T17:57:45.380Z,20
2018-05-15T17:58:35.342Z,20.1
2018-05-15T17:59:27.194Z,20
2018-05-15T18:00:15.190Z,20
2018-05-15T18:01:04.135Z,20
2018-05-15T18:01:55.561Z,20
2018-05-15T18:02:46.204Z,20
2018-05-15T18:03:35.196Z,20
2018-05-15T18:04:26.316Z,20
2018-05-15T18:05:15.553Z,20
2018-05-15T18:06:05.904Z,20
2018-05-15T18:06:55.180Z,20
2018-05-15T18:07:46.310Z,20
2018-05-15T18:08:37.017Z,20
2018-05-15T18:09:26.454Z,20
2018-05-15T18:10:15.747Z,20
2018-05-15T18:11:05.792Z,20
2018-05-15T18:11:55.980Z,20
2018-05-15T18:12:45.189Z,20
2018-05-15T18:13:35.500Z,20
2018-05-15T18:14:25.962Z,20
2018-05-15T18:15:17.527Z,20
2018-05-15T18:16:05.823Z,20
2018-05-15T18:16:56.718Z,20
2018-05-15T18:17:47.105Z,20
2018-05-15T18:18:37.441Z,20
2018-05-15T18:19:26.723Z,20
2018-05-15T18:20:16.787Z,20
2018-05-15T18:21:08.124Z,20
2018-05-15T18:21:57.847Z,20
2018-05-15T18:22:46.153Z,20
2018-05-15T18:23:37.324Z,20
2018-05-15T18:24:27.422Z,20
2018-05-15T18:25:16.592Z,20
2018-05-15T18:26:07.031Z,20
2018-05-15T18:26:56.445Z,20
2018-05-15T18:27:47.790Z,20
2018-05-15T18:28:37.187Z,20
2018-05-15T18:29:26.916Z,20
2018-05-15T18:30:17.757Z,20
2018-05-15T18:31:07.700Z,20
2018-05-15T18:31:57.754Z,20
2018-05-15T18:32:47.186Z,20
2018-05-15T18:33:38.105Z,20
2018-05-15T18:34:27.559Z,20
2018-05-15T18:35:17.407Z,20
2018-05-15T18:36:08.376Z,20
2018-05-15T18:36:57.517Z,20
2018-05-15T18:37:47.850Z,20
2018-05-15T18:38:38.476Z,20
2018-05-15T18:39:28.320Z,20
2018-05-15T18:40:18.100Z,19.9
2018-05-15T18:41:07.804Z,19.9
2018-05-15T18:41:58.123Z,19.9
2018-05-15T18:42:48.725Z,19.9
2018-05-15T18:43:37.981Z,19.9
2018-05-15T18:44:28.600Z,20
2018-05-15T18:45:19.562Z,20
2018-05-15T18:46:08.166Z,20
2018-05-15T18:46:58.538Z,20
2018-05-15T18:47:48.604Z,20
2018-05-15T18:48:39.016Z,19.9
2018-05-15T18:49:29.012Z,20
2018-05-15T18:50:18.583Z,19.9
2018-05-15T18:51:09.500Z,20
2018-05-15T18:51:59.338Z,19.9
2018-05-15T18:52:48.450Z,19.9
2018-05-15T18:53:39.450Z,19.9
2018-05-15T18:54:29.674Z,19.9
2018-05-15T18:55:18.719Z,19.9
2018-05-15T18:56:09.089Z,19.9
2018-05-15T18:56:59.050Z,19.9
2018-05-15T18:57:49.137Z,19.9
2018-05-15T18:58:39.215Z,19.9
2018-05-15T18:59:30.224Z,19.9
2018-05-15T19:00:19.119Z,19.9
2018-05-15T19:01:09.695Z,19.9
2018-05-15T19:01:59.386Z,19.9
2018-05-15T19:02:50.266Z,19.9
2018-05-15T19:03:40.644Z,19.9
2018-05-15T19:04:29.873Z,19.9
2018-05-15T19:05:21.362Z,19.9
2018-05-15T19:06:10.503Z,19.9
2018-05-15T19:07:01.530Z,19.9
2018-05-15T19:07:49.826Z,19.9
2018-05-15T19:08:40.482Z,19.9
2018-05-15T19:09:29.980Z,19.9
2018-05-15T19:10:20.329Z,19.9
2018-05-15T19:11:10.578Z,19.9
2018-05-15T19:12:00.052Z,19.9
2018-05-15T19:12:50.641Z,19.9
2018-05-15T19:13:40.087Z,19.9
2018-05-15T19:14:31.520Z,19.9
2018-05-15T19:15:21.334Z,19.9
2018-05-15T19:16:10.539Z,19.9
2018-05-15T19:17:01.529Z,19.9
2018-05-15T19:17:51.523Z,19.9
2018-05-15T19:18:41.123Z,19.9
2018-05-15T19:19:31.997Z,19.9
2018-05-15T19:20:21.404Z,19.9
2018-05-15T19:21:10.707Z,19.9
2018-05-15T19:22:01.106Z,19.9
2018-05-15T19:22:50.557Z,19.9
2018-05-15T19:23:42.055Z,19.9
2018-05-15T19:24:31.831Z,19.9
2018-05-15T19:25:21.642Z,19.9
2018-05-15T19:26:10.299Z,19.9
2018-05-15T19:27:02.397Z,19.9
2018-05-15T19:27:52.349Z,19.9
2018-05-15T19:28:42.657Z,19.9
2018-05-15T19:29:32.446Z,19.9
2018-05-15T19:30:22.780Z,19.9
2018-05-15T19:31:12.004Z,19.9
2018-05-15T19:32:02.980Z,19.9
2018-05-15T19:32:52.660Z,19.9
2018-05-15T19:33:42.781Z,19.9
2018-05-15T19:34:32.832Z,19.9
2018-05-15T19:35:22.872Z,19.9
2018-05-15T19:36:12.955Z,19.9
2018-05-15T19:37:03.562Z,19.9
2018-05-15T19:37:53.086Z,19.9
2018-05-15T19:38:42.813Z,19.9
2018-05-15T19:39:33.052Z,19.9
2018-05-15T19:40:23.236Z,19.9
2018-05-15T19:41:13.358Z,19.9
2018-05-15T19:42:02.794Z,19.9
2018-05-15T19:42:53.157Z,19.9
2018-05-15T19:43:43.483Z,19.9
2018-05-15T19:44:47.917Z,19.9
2018-05-15T19:45:23.185Z,19.9
2018-05-15T19:46:13.703Z,19.9
2018-05-15T19:47:02.865Z,19.9
2018-05-15T19:47:53.859Z,19.9
2018-05-15T19:48:43.881Z,19.9
2018-05-15T19:49:34.007Z,19.9
2018-05-15T19:50:24.048Z,19.9
2018-05-15T19:51:14.428Z,19.9
2018-05-15T19:52:04.634Z,19.9
2018-05-15T19:52:54.152Z,19.9
2018-05-15T19:53:43.957Z,19.9
2018-05-15T19:54:33.740Z,19.9
2018-05-15T19:55:24.432Z,19.9
2018-05-15T19:56:14.437Z,19.9
2018-05-15T19:57:04.799Z,19.9
2018-05-15T19:57:53.737Z,19.9
2018-05-15T19:58:44.675Z,19.9
2018-05-15T19:59:33.826Z,19.9
2018-05-15T20:00:24.805Z,19.9
2018-05-15T20:01:15.084Z,19.9
2018-05-15T20:02:05.761Z,19.9
2018-05-15T20:02:55.258Z,19.9
2018-05-15T20:03:44.800Z,19.9
2018-05-15T20:04:35.112Z,19.9
2018-05-15T20:05:24.861Z,19.9
2018-05-15T20:06:14.936Z,19.9
2018-05-15T20:07:05.263Z,19.8
2018-05-15T20:07:55.286Z,19.8
2018-05-15T20:08:45.594Z,19.8
2018-05-15T20:09:35.647Z,19.8
2018-05-15T20:10:25.129Z,19.8
2018-05-15T20:11:16.072Z,19.8
2018-05-15T20:12:06.100Z,19.8
2018-05-15T20:12:54.529Z,19.8
2018-05-15T20:13:45.439Z,19.8
2018-05-15T20:14:36.004Z,19.8
2018-05-15T20:15:25.381Z,19.8
2018-05-15T20:16:17.194Z,19.8
2018-05-15T20:17:05.636Z,19.8
2018-05-15T20:17:56.274Z,19.8
2018-05-15T20:18:45.210Z,19.8
2018-05-15T20:19:36.370Z,19.8
2018-05-15T20:20:26.240Z,19.8
2018-05-15T20:21:16.227Z,19.8
2018-05-15T20:22:06.018Z,19.8
2018-05-15T20:22:57.010Z,19.8
2018-05-15T20:23:47.285Z,19.8
2018-05-15T20:24:35.926Z,19.8
2018-05-15T20:25:26.537Z,19.8
2018-05-15T20:26:16.068Z,19.8
2018-05-15T20:27:06.663Z,19.8
2018-05-15T20:27:56.542Z,19.8
2018-05-15T20:28:46.842Z,19.8
2018-05-15T20:29:37.262Z,19.8
2018-05-15T20:30:26.125Z,19.8
2018-05-15T20:31:16.731Z,19.8
2018-05-15T20:32:06.283Z,19.8
2018-05-15T20:32:55.453Z,19.8
2018-05-15T20:33:47.330Z,19.8
2018-05-15T20:34:37.030Z,19.8
2018-05-15T20:35:27.297Z,19.8
2018-05-15T20:36:17.453Z,19.8
2018-05-15T20:37:07.199Z,19.8
2018-05-15T20:37:56.532Z,19.8
2018-05-15T20:38:47.300Z,19.8
2018-05-15T20:39:36.338Z,19.8
2018-05-15T20:40:27.157Z,19.8
2018-05-15T20:41:17.265Z,19.8
2018-05-15T20:42:08.056Z,19.8
2018-05-15T20:42:58.497Z,19.8
2018-05-15T20:43:47.671Z,19.8
2018-05-15T20:44:37.732Z,19.8
2018-05-15T20:45:27.225Z,19.8
2018-05-15T20:46:18.687Z,19.8
2018-05-15T20:47:08.738Z,19.8
2018-05-15T20:47:58.534Z,19.8
2018-05-15T20:48:48.041Z,19.8
2018-05-15T20:49:37.109Z,19.8
2018-05-15T20:50:27.663Z,19.8
2018-05-15T20:51:18.006Z,19.8
2018-05-15T20:52:08.926Z,19.8
2018-05-15T20:52:57.853Z,19.8
2018-05-15T20:53:48.476Z,19.8
2018-05-15T20:54:38.628Z,19.7
2018-05-15T20:55:28.360Z,19.8
2018-05-15T20:56:17.941Z,19.8
2018-05-15T20:57:08.755Z,19.7
2018-05-15T20:57:57.948Z,19.7
2018-05-15T20:58:48.909Z,19.7
2018-05-15T20:59:39.449Z,19.7
2018-05-15T21:00:29.317Z,19.7
2018-05-15T21:01:18.229Z,19.7
2018-05-15T21:02:09.111Z,19.8
2018-05-15T21:02:59.438Z,19.7
2018-05-15T21:03:49.544Z,19.7
2018-05-15T21:04:37.863Z,19.7
2018-05-15T21:05:29.093Z,19.7
2018-05-15T21:06:33.477Z,19.7
2018-05-15T21:07:09.508Z,19.7
2018-05-15T21:07:59.525Z,19.7
2018-05-15T21:08:49.924Z,19.7
2018-05-15T21:09:39.938Z,19.7
2018-05-15T21:10:30.347Z,19.7
2018-05-15T21:11:19.791Z,19.7
2018-05-15T21:12:09.556Z,19.7
2018-05-15T21:12:59.283Z,19.7
2018-05-15T21:13:50.219Z,19.7
2018-05-15T21:14:38.900Z,19.7
2018-05-15T21:15:30.399Z,19.6
2018-05-15T21:16:20.713Z,19.7
2018-05-15T21:17:10.575Z,19.7
2018-05-15T21:18:00.935Z,19.7
2018-05-15T21:18:50.372Z,19.7
2018-05-15T21:19:40.413Z,19.7
2018-05-15T21:20:30.860Z,19.7
2018-05-15T21:21:21.259Z,19.7
2018-05-15T21:22:11.423Z,19.7
2018-05-15T21:23:01.252Z,19.7
2018-05-15T21:23:51.317Z,19.7
2018-05-15T21:24:40.515Z,19.7
2018-05-15T21:25:30.794Z,19.7
2018-05-15T21:26:20.907Z,19.7
2018-05-15T21:27:09.778Z,19.7
2018-05-15T21:28:00.035Z,19.7
2018-05-15T21:28:49.709Z,19.7
2018-05-15T21:29:40.334Z,19.7
2018-05-15T21:30:30.487Z,19.7
2018-05-15T21:31:19.810Z,19.7
2018-05-15T21:32:09.081Z,19.6
2018-05-15T21:33:00.922Z,19.7
2018-05-15T21:33:51.042Z,19.6
2018-05-15T21:34:40.542Z,19.6
2018-05-15T21:35:30.489Z,19.7
2018-05-15T21:36:19.574Z,19.7
2018-05-15T21:37:11.474Z,19.7
2018-05-15T21:38:00.994Z,19.6
2018-05-15T21:38:50.353Z,19.6
2018-05-15T21:39:41.714Z,19.6
2018-05-15T21:40:30.386Z,19.6
2018-05-15T21:41:21.329Z,19.6
2018-05-15T21:42:11.824Z,19.6
2018-05-15T21:43:02.290Z,19.6
2018-05-15T21:43:51.974Z,19.6
2018-05-15T21:44:42.547Z,19.6
2018-05-15T21:45:32.088Z,19.6
2018-05-15T21:46:22.779Z,19.6
2018-05-15T21:47:13.012Z,19.6
2018-05-15T21:48:03.429Z,19.6
2018-05-15T21:48:52.641Z,19.6
2018-05-15T21:49:43.259Z,19.6
2018-05-15T21:50:32.147Z,19.6
2018-05-15T21:51:23.142Z,19.6
2018-05-15T21:52:13.138Z,19.6
2018-05-15T21:53:02.941Z,19.7
2018-05-15T21:53:52.773Z,19.7
2018-05-15T21:54:42.535Z,19.6
2018-05-15T21:55:33.975Z,19.6
2018-05-15T21:56:23.493Z,19.6
2018-05-15T21:57:14.143Z,19.6
2018-05-15T21:58:02.741Z,19.6
2018-05-15T21:58:53.968Z,19.6
2018-05-15T21:59:43.768Z,19.6
2018-05-15T22:00:32.948Z,19.6
2018-05-15T22:01:24.173Z,19.6
2018-05-15T22:02:13.640Z,19.6
2018-05-15T22:03:03.693Z,19.6
2018-05-15T22:03:54.688Z,19.6
2018-05-15T22:04:44.120Z,19.6
2018-05-15T22:05:33.589Z,19.6
2018-05-15T22:06:24.512Z,19.6
2018-05-15T22:07:14.329Z,19.6
2018-05-15T22:08:03.811Z,19.6
2018-05-15T22:08:54.757Z,19.6
2018-05-15T22:09:45.021Z,19.6
2018-05-15T22:10:35.101Z,19.6
2018-05-15T22:11:24.594Z,19.6
2018-05-15T22:12:14.102Z,19.6
2018-05-15T22:13:05.279Z,19.6
2018-05-15T22:13:55.373Z,19.6
2018-05-15T22:14:45.216Z,19.6
2018-05-15T22:15:35.525Z,19.6
2018-05-15T22:16:25.268Z,19.6
2018-05-15T22:17:14.491Z,19.6
2018-05-15T22:18:05.435Z,19.6
2018-05-15T22:18:55.916Z,19.6
2018-05-15T22:19:45.260Z,19.6
2018-05-15T22:20:36.548Z,19.6
2018-05-15T22:21:25.373Z,19.6
2018-05-15T22:22:15.958Z,19.6
2018-05-15T22:23:05.501Z,19.6
2018-05-15T22:23:55.564Z,19.6
2018-05-15T22:24:46.151Z,19.6
2018-05-15T22:25:35.770Z,19.6
2018-05-15T22:26:26.123Z,19.6
2018-05-15T22:27:16.415Z,19.6
2018-05-15T22:28:05.358Z,19.6
2018-05-15T22:28:55.672Z,19.6
2018-05-15T22:29:46.379Z,19.6
2018-05-15T22:30:35.840Z,19.6
2018-05-15T22:31:26.728Z,19.6
2018-05-15T22:32:16.483Z,19.6
2018-05-15T22:33:06.279Z,19.6
2018-05-15T22:33:56.931Z,19.6
2018-05-15T22:34:46.408Z,19.6
2018-05-15T22:35:35.597Z,19.6
2018-05-15T22:36:26.782Z,19.6
2018-05-15T22:37:16.872Z,19.6
2018-05-15T22:38:06.909Z,19.6
2018-05-15T22:38:56.989Z,19.6
2018-05-15T22:39:47.064Z,19.6
2018-05-15T22:40:36.599Z,19.6
2018-05-15T22:41:26.917Z,19.6
2018-05-15T22:42:17.022Z,19.6
2018-05-15T22:43:07.322Z,19.6
2018-05-15T22:43:56.851Z,19.6
2018-05-15T22:44:46.923Z,19.6
2018-05-15T22:45:37.268Z,19.6
2018-05-15T22:46:26.190Z,19.6
2018-05-15T22:47:16.818Z,19.6
2018-05-15T22:48:07.173Z,19.6
2018-05-15T22:48:57.842Z,19.6
2018-05-15T22:49:47.033Z,19.6
2018-05-15T22:50:38.006Z,19.6
2018-05-15T22:51:27.125Z,19.6
2018-05-15T22:52:17.773Z,19.6
2018-05-15T22:53:07.275Z,19.6
2018-05-15T22:53:57.991Z,19.6
2018-05-15T22:54:46.167Z,19.6
2018-05-15T22:55:37.490Z,19.6
2018-05-15T22:56:27.262Z,19.6
2018-05-15T22:57:16.144Z,19.6
2018-05-15T22:58:06.831Z,19.6
2018-05-15T22:58:57.405Z,19.6
2018-05-15T22:59:46.861Z,19.6
2018-05-15T23:00:36.837Z,19.6
2018-05-15T23:01:27.172Z,19.6
2018-05-15T23:02:18.304Z,19.6
2018-05-15T23:03:07.061Z,19.6
2018-05-15T23:03:58.219Z,19.6
2018-05-15T23:04:47.292Z,19.6
2018-05-15T23:05:38.326Z,19.6
2018-05-15T23:06:27.069Z,19.6
2018-05-15T23:07:18.370Z,19.6
2018-05-15T23:08:07.531Z,19.6
2018-05-15T23:08:58.501Z,19.6
2018-05-15T23:09:48.599Z,19.6
2018-05-15T23:10:38.068Z,19.6
2018-05-15T23:11:28.145Z,19.6
2018-05-15T23:12:17.981Z,19.6
2018-05-15T23:13:08.854Z,19.6
2018-05-15T23:13:58.730Z,19.6
2018-05-15T23:14:48.369Z,19.6
2018-05-15T23:15:39.548Z,19.6
2018-05-15T23:16:28.731Z,19.6
2018-05-15T23:17:19.123Z,19.6
2018-05-15T23:18:07.930Z,19.6
2018-05-15T23:18:58.804Z,19.6
2018-05-15T23:19:49.048Z,19.6
2018-05-15T23:20:38.616Z,19.6
2018-05-15T23:21:27.906Z,19.6
2018-05-15T23:22:19.345Z,19.6
2018-05-15T23:23:08.522Z,19.6
2018-05-15T23:24:00.221Z,19.6
2018-05-15T23:24:49.339Z,19.6
2018-05-15T23:25:39.503Z,19.6
2018-05-15T23:26:28.330Z,19.6
2018-05-15T23:27:18.835Z,19.6
2018-05-15T23:28:10.029Z,19.6
2018-05-15T23:28:59.444Z,19.6
2018-05-15T23:29:50.337Z,19.6
2018-05-15T23:30:40.145Z,19.6
2018-05-15T23:31:30.989Z,19.6
2018-05-15T23:32:20.794Z,19.6
2018-05-15T23:33:10.617Z,19.6
2018-05-15T23:34:01.199Z,19.6
2018-05-15T23:34:51.556Z,19.6
2018-05-15T23:35:40.517Z,19.5
2018-05-15T23:36:31.655Z,19.6
2018-05-15T23:37:21.737Z,19.5
2018-05-15T23:38:11.241Z,19.6
2018-05-15T23:39:01.302Z,19.6
2018-05-15T23:39:50.803Z,19.6
2018-05-15T23:40:41.449Z,19.5
2018-05-15T23:41:31.497Z,19.6
2018-05-15T23:42:21.282Z,19.6
2018-05-15T23:43:12.230Z,19.6
2018-05-15T23:44:01.687Z,19.5
2018-05-15T23:44:51.485Z,19.5
2018-05-15T23:45:41.279Z,19.5
2018-05-15T23:46:31.420Z,19.6
2018-05-15T23:47:21.657Z,19.5
2018-05-15T23:48:11.838Z,19.5
2018-05-15T23:49:00.678Z,19.5
2018-05-15T23:49:52.753Z,19.5
2018-05-15T23:50:42.217Z,19.5
2018-05-15T23:51:32.678Z,19.5
2018-05-15T23:52:22.726Z,19.5
2018-05-15T23:53:12.967Z,19.5
2018-05-15T23:54:01.950Z,19.5
2018-05-15T23:54:52.235Z,19.5
2018-05-15T23:55:42.663Z,19.5
2018-05-15T23:56:32.098Z,19.5
2018-05-15T23:57:22.955Z,19.5
2018-05-15T23:58:12.762Z,19.5
2018-05-15T23:59:02.931Z,19.5
2018-05-15T23:59:52.654Z,19.5
